Time;durP1;ratioP1;P1;durP2;ratioP2;P2;SDS_P1;SDS_P2;PMS_P1;PMS_P2;Temp;Humidity;BMP_temperature;BMP_pressure;BME280_temperature;BME280_humidity;BME280_pressure;Samples;Min_cycle;Max_cycle;Signal;HPM_P1;HPM_P2
2021/06/07 00:02:31;;;;;;;13.90;3.67;;;;;;;16.43;100.00;99523.22;10513865;28;20178;-78
2021/06/07 00:07:51;;;;;;;8.13;4.73;;;;;;;16.43;100.00;99523.22;10499055;28;20210;-77
2021/06/07 00:13:11;;;;;;;5.87;3.90;;;;;;;16.46;100.00;99519.59;10500173;28;20179;-82
2021/06/07 00:18:31;;;;;;;7.67;4.23;;;;;;;16.49;100.00;99522.28;10499017;28;20179;-79
2021/06/07 00:23:51;;;;;;;8.60;4.47;;;;;;;16.43;100.00;99528.78;10498418;28;20178;-83
2021/06/07 00:29:10;;;;;;;9.03;4.63;;;;;;;16.39;100.00;99528.06;10499450;28;20241;-77
2021/06/07 00:34:29;;;;;;;6.83;5.07;;;;;;;16.42;100.00;99532.75;10498802;28;20222;-77
2021/06/07 00:39:48;;;;;;;8.27;5.50;;;;;;;16.39;100.00;99528.06;10498004;28;20178;-78
2021/06/07 00:45:14;;;;;;;8.57;5.97;;;;;;;16.44;100.00;99536.66;10499041;28;20189;-78
2021/06/07 00:50:44;;;;;;;10.60;5.67;;;;;;;16.42;100.00;99522.44;10497389;28;20684;-79
2021/06/07 00:56:06;;;;;;;10.13;5.50;;;;;;;16.41;100.00;99520.06;10497192;28;20210;-76
2021/06/07 01:01:28;;;;;;;8.13;4.90;;;;;;;16.37;100.00;99524.94;10497435;28;20179;-77
2021/06/07 01:06:47;;;;;;;6.03;5.33;;;;;;;16.42;100.00;99516.09;10495882;28;20661;-77
2021/06/07 01:12:06;;;;;;;6.23;4.87;;;;;;;16.32;100.00;99511.53;10497445;28;20206;-78
2021/06/07 01:17:26;;;;;;;7.10;5.00;;;;;;;16.30;100.00;99519.53;10498209;28;20178;-79
2021/06/07 01:22:47;;;;;;;11.77;5.30;;;;;;;16.28;100.00;99516.34;10496695;28;20206;-77
2021/06/07 01:28:09;;;;;;;11.97;6.93;;;;;;;16.36;100.00;99512.25;10497494;28;20223;-79
2021/06/07 01:33:29;;;;;;;10.23;5.70;;;;;;;16.22;100.00;99504.94;10497424;28;20226;-79
2021/06/07 01:38:48;;;;;;;9.73;6.17;;;;;;;16.15;100.00;99507.09;10496095;28;20633;-79
2021/06/07 01:44:07;;;;;;;9.40;5.73;;;;;;;16.12;100.00;99499.63;10497469;28;20187;-81
2021/06/07 01:49:26;;;;;;;6.83;5.00;;;;;;;16.09;100.00;99492.94;10496778;28;20704;-78
2021/06/07 01:54:45;;;;;;;10.93;6.00;;;;;;;16.13;100.00;99493.63;10495963;28;20179;-78
2021/06/07 02:00:11;;;;;;;11.97;7.07;;;;;;;16.15;100.00;99496.00;10497628;28;20206;-78
2021/06/07 02:05:33;;;;;;;7.13;6.00;;;;;;;16.05;100.00;99499.75;10505203;28;20222;-78
2021/06/07 02:10:56;;;;;;;7.63;5.60;;;;;;;16.02;100.00;99492.28;10503386;28;20230;-80
2021/06/07 02:16:18;;;;;;;7.43;5.77;;;;;;;16.05;100.00;99491.44;10504300;28;20254;-80
2021/06/07 02:21:38;;;;;;;10.33;5.90;;;;;;;16.03;100.00;99497.38;10503438;28;20178;-78
2021/06/07 02:26:57;;;;;;;8.67;6.37;;;;;;;16.07;100.00;99497.34;10504317;28;20175;-79
2021/06/07 02:32:16;;;;;;;7.90;5.33;;;;;;;16.08;100.00;99498.88;10504193;28;20222;-78
2021/06/07 02:37:36;;;;;;;12.33;6.20;;;;;;;16.10;100.00;99500.06;10502674;28;20186;-78
2021/06/07 02:42:56;;;;;;;11.50;5.70;;;;;;;16.01;100.00;99507.34;10503869;28;20527;-78
2021/06/07 02:48:16;;;;;;;8.37;5.70;;;;;;;16.03;100.00;99507.72;10502536;28;20210;-82
2021/06/07 02:53:35;;;;;;;9.63;6.50;;;;;;;16.06;100.00;99498.56;10502184;28;20171;-80
2021/06/07 02:58:54;;;;;;;10.30;6.90;;;;;;;16.07;100.00;99506.44;10503341;28;20174;-81
2021/06/07 03:04:13;;;;;;;9.47;6.47;;;;;;;16.05;100.00;99502.53;10502978;28;20195;-80
2021/06/07 03:09:32;;;;;;;12.30;7.27;;;;;;;16.03;100.00;99504.94;10500399;28;20198;-80
2021/06/07 03:14:52;;;;;;;14.07;6.20;;;;;;;16.08;100.00;99504.44;10502010;28;20245;-81
2021/06/07 03:20:14;;;;;;;9.73;6.40;;;;;;;16.07;100.00;99514.00;10502588;28;20171;-79
2021/06/07 03:25:33;;;;;;;13.23;6.57;;;;;;;16.07;100.00;99505.66;10501015;28;20617;-79
2021/06/07 03:30:53;;;;;;;12.30;6.93;;;;;;;16.02;100.00;99503.38;10500712;28;20206;-81
2021/06/07 03:36:12;;;;;;;11.00;5.73;;;;;;;16.01;100.00;99504.56;10500322;28;20222;-78
2021/06/07 03:41:31;;;;;;;11.27;6.10;;;;;;;16.02;100.00;99508.91;10500672;28;20201;-80
2021/06/07 03:46:50;;;;;;;9.33;5.40;;;;;;;16.04;100.00;99517.63;10514770;28;20548;-77
2021/06/07 03:52:09;;;;;;;9.60;5.20;;;;;;;16.03;100.00;99516.03;10512409;28;20203;-77
2021/06/07 03:57:28;;;;;;;13.17;5.93;;;;;;;16.02;100.00;99508.91;10500885;28;20625;-77
2021/06/07 04:02:47;;;;;;;12.17;6.07;;;;;;;16.00;100.00;99505.78;10500590;28;20170;-76
2021/06/07 04:08:09;;;;;;;8.50;6.20;;;;;;;16.08;100.00;99510.00;10499136;28;20202;-78
2021/06/07 04:13:28;;;;;;;10.57;5.77;;;;;;;16.10;100.00;99518.69;10500311;28;20178;-78
2021/06/07 04:18:48;;;;;;;12.13;5.63;;;;;;;16.15;100.00;99512.66;10500300;28;20533;-77
2021/06/07 04:24:07;;;;;;;6.93;5.83;;;;;;;16.15;100.00;99520.97;10497652;28;20621;-77
2021/06/07 04:29:26;;;;;;;11.67;7.60;;;;;;;16.22;100.00;99523.63;10499444;28;20206;-77
2021/06/07 04:34:45;;;;;;;9.73;6.53;;;;;;;16.24;100.00;99523.94;10498924;28;20222;-76
2021/06/07 04:40:05;;;;;;;7.73;5.33;;;;;;;16.30;100.00;99527.84;10497740;28;20179;-77
2021/06/07 04:45:27;;;;;;;8.80;6.93;;;;;;;16.37;100.00;99520.16;10498999;28;20534;-81
2021/06/07 04:50:46;;;;;;;13.67;7.90;;;;;;;16.41;100.00;99525.63;10511863;28;20210;-84
2021/06/07 04:56:08;;;;;;;14.33;6.40;;;;;;;16.46;100.00;99525.91;10497365;28;20178;-79
2021/06/07 05:01:26;;;;;;;12.13;5.87;;;;;;;16.53;100.00;99519.44;10498368;28;20174;-78
2021/06/07 05:06:46;;;;;;;12.33;7.10;;;;;;;16.56;100.00;99515.81;10495852;28;20595;-80
2021/06/07 05:12:05;;;;;;;11.23;7.73;;;;;;;16.60;100.00;99522.06;10496648;28;20301;-76
2021/06/07 05:17:25;;;;;;;7.90;6.80;;;;;;;16.70;100.00;99524.63;10497300;28;20178;-79
2021/06/07 05:22:44;;;;;;;14.40;6.93;;;;;;;16.73;100.00;99534.09;10492297;28;20549;-79
2021/06/07 05:28:06;;;;;;;16.07;8.60;;;;;;;16.86;100.00;99525.47;10497274;28;20247;-81
2021/06/07 05:33:25;;;;;;;12.73;7.90;;;;;;;16.90;100.00;99533.72;10497305;28;20222;-81
2021/06/07 05:38:44;;;;;;;12.23;6.60;;;;;;;17.05;100.00;99530.19;10494924;28;20175;-80
2021/06/07 05:44:03;;;;;;;10.67;7.23;;;;;;;17.08;100.00;99536.91;10497619;28;20178;-79
2021/06/07 05:49:23;;;;;;;13.80;6.33;;;;;;;17.13;100.00;99537.16;10496939;28;20229;-80
2021/06/07 05:54:42;;;;;;;12.57;6.43;;;;;;;17.16;100.00;99544.63;10496026;28;20633;-78
2021/06/07 06:00:04;;;;;;;9.57;6.20;;;;;;;17.34;100.00;99544.25;10496107;28;20191;-80
2021/06/07 06:05:23;;;;;;;14.13;7.00;;;;;;;17.46;100.00;99538.78;10496925;28;20195;-79
2021/06/07 06:10:42;;;;;;;12.40;7.73;;;;;;;17.61;100.00;99540.00;10495194;28;20682;-80
2021/06/07 06:16:01;;;;;;;13.03;6.40;;;;;;;17.83;100.00;99541.06;10496574;28;20175;-79
2021/06/07 06:21:20;;;;;;;13.83;7.33;;;;;;;18.02;100.00;99545.69;10496363;28;20183;-78
2021/06/07 06:26:40;;;;;;;8.90;5.30;;;;;;;18.16;100.00;99539.78;10495884;28;20630;-80
2021/06/07 06:31:59;;;;;;;14.57;8.83;;;;;;;18.35;100.00;99545.25;10494199;28;20644;-79
2021/06/07 06:37:18;;;;;;;9.03;5.63;;;;;;;18.45;100.00;99549.75;10493292;28;20584;-79
2021/06/07 06:42:39;;;;;;;9.43;6.10;;;;;;;18.42;100.00;99545.03;10496191;28;20179;-80
2021/06/07 06:47:59;;;;;;;6.43;4.90;;;;;;;18.39;100.00;99556.28;10497951;28;20190;-80
2021/06/07 06:53:20;;;;;;;9.37;4.60;;;;;;;18.44;100.00;99556.53;10502039;28;20179;-78
2021/06/07 06:58:39;;;;;;;13.37;6.70;;;;;;;18.54;100.00;99561.81;10502861;28;20270;-79
2021/06/07 07:03:58;;;;;;;8.70;5.77;;;;;;;18.71;100.00;99566.09;10467081;28;20219;-79
2021/06/07 07:09:17;;;;;;;7.63;5.40;;;;;;;18.89;100.00;99566.38;10501583;28;20210;-79
2021/06/07 07:14:36;;;;;;;10.10;5.80;;;;;;;19.09;100.00;99566.19;10501458;28;20190;-78
2021/06/07 07:19:55;;;;;;;8.00;5.43;;;;;;;19.24;100.00;99560.53;10502659;28;20167;-79
2021/06/07 07:25:15;;;;;;;7.17;5.00;;;;;;;19.34;100.00;99570.56;10501101;28;20568;-81
2021/06/07 07:30:35;;;;;;;6.70;5.13;;;;;;;19.30;100.00;99569.13;10501786;28;20285;-79
2021/06/07 07:35:54;;;;;;;11.80;5.50;;;;;;;19.37;100.00;99574.50;10501077;28;20693;-80
2021/06/07 07:41:13;;;;;;;9.43;5.83;;;;;;;19.34;100.00;99581.72;10500533;28;20614;-79
2021/06/07 07:46:32;;;;;;;9.37;5.27;;;;;;;19.40;100.00;99584.75;10501428;28;20179;-80
2021/06/07 07:51:52;;;;;;;8.53;6.07;;;;;;;19.48;100.00;99586.06;10499373;28;20693;-82
2021/06/07 07:57:12;;;;;;;9.43;5.10;;;;;;;19.57;100.00;99581.41;10501173;28;20527;-81
2021/06/07 08:02:32;;;;;;;9.20;4.80;;;;;;;19.57;100.00;99577.81;10500455;28;20237;-79
2021/06/07 08:07:50;;;;;;;7.57;5.33;;;;;;;19.72;100.00;99578.91;10499261;28;20676;-80
2021/06/07 08:13:10;;;;;;;5.47;3.87;;;;;;;19.95;100.00;99582.16;10499755;28;20190;-81
2021/06/07 08:18:29;;;;;;;6.57;5.20;;;;;;;20.15;100.00;99588.28;10499137;28;20186;-79
2021/06/07 08:23:48;;;;;;;8.20;5.93;;;;;;;20.33;100.00;99580.84;10498389;28;20603;-80
2021/06/07 08:29:09;;;;;;;7.50;4.23;;;;;;;20.47;100.00;99585.91;10499525;28;20206;-82
2021/06/07 08:34:28;;;;;;;5.40;4.93;;;;;;;20.86;100.00;99578.94;10499088;28;20226;-81
2021/06/07 08:39:47;;;;;;;8.10;4.90;;;;;;;21.35;100.00;99580.63;10497097;28;20182;-81
2021/06/07 08:45:09;;;;;;;9.93;5.57;;;;;;;21.89;100.00;99579.59;10499321;28;20175;-78
2021/06/07 08:50:30;;;;;;;6.70;4.53;;;;;;;22.30;100.00;99575.50;10498659;28;20206;-80
2021/06/07 08:55:49;;;;;;;6.57;4.77;;;;;;;22.30;100.00;99581.91;10497507;28;20254;-78
2021/06/07 09:01:09;;;;;;;5.13;4.10;;;;;;;22.09;100.00;99591.19;10498458;28;20206;-78
2021/06/07 09:06:27;;;;;;;4.40;3.87;;;;;;;22.05;100.00;99589.78;10497552;28;20166;-78
2021/06/07 09:11:56;;;;;;;11.30;4.83;;;;;;;21.67;100.00;99587.31;10496096;28;20194;-78
2021/06/07 09:17:20;;;;;;;6.10;3.80;;;;;;;21.87;100.00;99592.53;10498341;28;20202;-79
2021/06/07 09:22:47;;;;;;;6.53;4.17;;;;;;;21.73;100.00;99582.69;10496426;28;20190;-78
2021/06/07 09:28:13;;;;;;;3.60;3.20;;;;;;;22.13;100.00;99589.00;10497973;28;20202;-80
2021/06/07 09:33:40;;;;;;;5.87;4.20;;;;;;;22.66;100.00;99584.72;10497584;28;20210;-81
2021/06/07 09:39:10;;;;;;;3.73;3.43;;;;;;;23.01;100.00;99586.69;10495064;28;20194;-76
2021/06/07 09:44:31;;;;;;;4.73;4.30;;;;;;;23.17;100.00;99588.44;10496200;28;20626;-76
2021/06/07 09:49:59;;;;;;;6.00;5.00;;;;;;;23.95;100.00;99593.44;10496005;28;20281;-77
2021/06/07 09:55:22;;;;;;;5.37;3.97;;;;;;;24.43;96.06;99573.28;10495011;28;20174;-76
2021/06/07 10:00:50;;;;;;;21.07;5.30;;;;;;;25.59;95.76;99567.75;10497112;28;20186;-77
2021/06/07 10:06:29;;;;;;;5.67;4.20;;;;;;;25.80;91.96;99577.84;10497102;28;20170;-77
2021/06/07 10:11:50;;;;;;;3.80;3.50;;;;;;;26.64;86.47;99575.19;10495435;28;20206;-79
2021/06/07 10:17:09;;;;;;;5.20;4.70;;;;;;;26.58;66.48;99572.78;10497096;28;20249;-77
2021/06/07 10:22:29;;;;;;;7.57;5.57;;;;;;;25.88;67.93;99568.50;10510029;28;20175;-77
2021/06/07 10:27:49;;;;;;;5.43;4.90;;;;;;;25.93;70.22;99560.13;10503244;28;20190;-78
2021/06/07 10:33:29;;;;;;;6.37;5.00;;;;;;;26.78;67.83;99556.56;10496735;28;20297;-77
2021/06/07 10:39:14;;;;;;;6.73;4.53;;;;;;;26.16;68.19;99559.16;10502111;28;20175;-78
2021/06/07 10:45:04;;;;;;;5.37;4.83;;;;;;;25.46;68.23;99559.59;10503029;28;20182;-77
2021/06/07 10:50:34;;;;;;;4.70;4.10;;;;;;;25.50;70.83;99557.38;10502333;28;20247;-77
2021/06/07 10:56:10;;;;;;;4.83;4.43;;;;;;;25.88;69.57;99557.22;10500865;28;20170;-77
2021/06/07 11:01:49;;;;;;;5.13;4.20;;;;;;;25.33;71.64;99561.97;10502379;28;20574;-77
2021/06/07 11:07:17;;;;;;;4.60;4.20;;;;;;;24.59;75.43;99555.19;10501920;28;20175;-77
2021/06/07 11:12:38;;;;;;;6.27;4.00;;;;;;;24.13;75.27;99565.97;10503104;28;20179;-78
2021/06/07 11:18:38;;;;;;;6.23;5.27;;;;;;;23.70;78.11;99554.50;10502824;28;20183;-77
2021/06/07 11:23:58;;;;;;;6.70;4.67;;;;;;;23.65;78.57;99557.97;10499063;28;20629;-80
2021/06/07 11:29:17;;;;;;;4.47;4.07;;;;;;;24.01;76.63;99554.97;10500821;28;20689;-76
2021/06/07 11:34:41;;;;;;;5.37;4.87;;;;;;;24.21;79.37;99555.16;10501143;28;20219;-80
2021/06/07 11:40:06;;;;;;;5.13;4.63;;;;;;;24.84;73.22;99552.59;10500720;28;20571;-80
2021/06/07 11:45:42;;;;;;;4.40;4.00;;;;;;;24.88;74.26;99549.63;10500776;28;20179;-79
2021/06/07 11:51:31;;;;;;;4.47;4.07;;;;;;;25.39;73.65;99531.06;10500133;28;20211;-79
2021/06/07 11:56:54;;;;;;;5.33;4.83;;;;;;;25.26;71.86;99528.56;10500134;28;20179;-78
2021/06/07 12:02:19;;;;;;;5.53;4.43;;;;;;;24.78;72.14;99531.25;10501093;28;20194;-78
2021/06/07 12:07:43;;;;;;;4.93;4.43;;;;;;;24.76;71.61;99526.09;10498595;28;20182;-79
2021/06/07 12:13:35;;;;;;;5.50;5.03;;;;;;;24.95;72.11;99521.09;10500514;28;20549;-78
2021/06/07 12:18:54;;;;;;;5.40;4.40;;;;;;;25.07;70.75;99521.56;10499312;28;20236;-81
2021/06/07 12:24:18;;;;;;;6.10;4.70;;;;;;;24.56;73.67;99509.09;10497919;28;20175;-82
2021/06/07 12:29:40;;;;;;;4.80;4.10;;;;;;;25.02;69.23;99513.81;10499558;28;20222;-81
2021/06/07 12:35:07;;;;;;;4.00;3.70;;;;;;;25.18;66.59;99506.91;10499219;28;20676;-78
2021/06/07 12:40:37;;;;;;;6.20;4.60;;;;;;;25.58;69.08;99501.38;10497578;28;20588;-79
2021/06/07 12:46:02;;;;;;;5.50;4.47;;;;;;;25.23;68.03;99490.09;10498401;28;20681;-79
2021/06/07 12:51:23;;;;;;;5.43;4.60;;;;;;;25.98;66.11;99488.16;10511965;28;20206;-78
2021/06/07 12:56:49;;;;;;;7.57;6.07;;;;;;;26.17;61.62;99495.06;10497484;28;20174;-79
2021/06/07 13:02:11;;;;;;;7.03;5.30;;;;;;;27.01;66.01;99487.78;10498487;28;20670;-81
2021/06/07 13:07:31;;;;;;;6.27;5.17;;;;;;;27.89;58.85;99477.88;10495260;28;20560;-78
2021/06/07 13:12:55;;;;;;;7.30;5.07;;;;;;;26.83;62.55;99474.00;10497803;28;20191;-80
2021/06/07 13:18:14;;;;;;;6.67;5.00;;;;;;;27.51;61.64;99472.75;10498361;28;20210;-78
2021/06/07 13:23:42;;;;;;;5.40;4.90;;;;;;;26.73;64.50;99472.59;10495809;28;20170;-78
2021/06/07 13:29:20;;;;;;;9.73;5.20;;;;;;;26.92;67.17;99462.53;10496910;28;20202;-80
2021/06/07 13:35:08;;;;;;;7.07;5.47;;;;;;;27.58;60.13;99460.97;10496292;28;20302;-80
2021/06/07 13:40:29;;;;;;;5.77;4.90;;;;;;;27.90;58.17;99465.28;10496071;28;20229;-78
2021/06/07 13:45:50;;;;;;;7.63;5.43;;;;;;;28.38;56.59;99459.06;10497650;28;20170;-80
2021/06/07 13:51:09;;;;;;;5.27;4.53;;;;;;;29.80;53.59;99449.81;10496896;28;20206;-79
2021/06/07 13:56:28;;;;;;;7.20;5.40;;;;;;;28.17;56.35;99450.50;10497636;28;20206;-79
2021/06/07 14:01:49;;;;;;;5.90;4.70;;;;;;;27.37;59.84;99459.56;10505340;28;20194;-78
2021/06/07 14:07:08;;;;;;;5.60;5.10;;;;;;;28.09;59.71;99455.09;10504275;28;20543;-78
2021/06/07 14:12:27;;;;;;;4.50;4.20;;;;;;;28.89;56.62;99455.84;10503661;28;20632;-77
2021/06/07 14:17:47;;;;;;;5.60;4.83;;;;;;;28.56;58.69;99455.78;10505032;28;20191;-78
2021/06/07 14:28:45;;;;;;;4.97;4.57;;;;;;;30.83;51.22;99439.25;10503918;28;20297;-78
2021/06/07 14:34:04;;;;;;;5.47;4.90;;;;;;;30.03;50.79;99437.09;10504098;28;20218;-78
2021/06/07 14:39:24;;;;;;;4.33;4.03;;;;;;;28.71;55.41;99436.47;10501947;28;20645;-80
2021/06/07 14:44:43;;;;;;;5.83;5.20;;;;;;;27.82;56.72;99447.25;10504107;28;20182;-79
2021/06/07 14:50:03;;;;;;;4.40;4.00;;;;;;;27.08;60.76;99428.78;10502509;28;20206;-78
2021/06/07 14:55:24;;;;;;;5.37;4.60;;;;;;;26.80;60.55;99430.59;10501442;28;20174;-77
2021/06/07 15:00:43;;;;;;;5.77;5.20;;;;;;;26.63;64.30;99426.84;10501811;28;20203;-77
2021/06/07 15:06:03;;;;;;;4.73;4.23;;;;;;;27.47;60.22;99421.31;10503126;28;20557;-77
2021/06/07 15:11:22;;;;;;;6.50;5.47;;;;;;;26.85;61.50;99420.63;10500343;28;20202;-80
2021/06/07 15:16:41;;;;;;;4.57;4.17;;;;;;;26.32;60.61;99422.41;10501483;28;20175;-76
2021/06/07 15:22:01;;;;;;;6.87;5.27;;;;;;;25.96;62.66;99414.53;10500229;28;20171;-81
2021/06/07 15:27:21;;;;;;;5.17;4.67;;;;;;;25.33;65.34;99409.06;10515743;28;20182;-79
2021/06/07 15:32:42;;;;;;;4.50;4.10;;;;;;;25.64;65.67;99412.84;10501597;28;20226;-77
2021/06/07 15:38:03;;;;;;;4.70;4.30;;;;;;;25.63;64.69;99416.91;10500674;28;20178;-78
2021/06/07 15:43:23;;;;;;;5.40;5.00;;;;;;;25.63;64.88;99413.34;10500818;28;20187;-78
2021/06/07 15:48:43;;;;;;;6.53;4.47;;;;;;;25.45;64.93;99405.91;10501331;28;20202;-80
2021/06/07 15:54:03;;;;;;;7.00;5.47;;;;;;;25.04;67.85;99404.25;10499972;28;20617;-77
2021/06/07 15:59:22;;;;;;;5.87;5.13;;;;;;;25.21;66.23;99394.03;10501141;28;20194;-79
2021/06/07 16:04:41;;;;;;;5.97;4.50;;;;;;;25.19;68.53;99388.16;10500129;28;20747;-77
2021/06/07 16:10:05;;;;;;;4.57;4.13;;;;;;;25.15;66.77;99393.19;10499269;28;20277;-79
2021/06/07 16:15:24;;;;;;;10.73;5.70;;;;;;;24.86;68.69;99391.69;10500554;28;20167;-80
2021/06/07 16:26:03;;;;;;;11.17;4.90;;;;;;;24.47;69.91;99398.72;10498250;28;20212;-79
2021/06/07 16:31:23;;;;;;;5.70;4.87;;;;;;;24.66;70.10;99400.06;10499472;28;20206;-77
2021/06/07 16:36:42;;;;;;;5.87;4.63;;;;;;;24.38;70.65;99407.97;10498411;28;20190;-78
2021/06/07 16:42:01;;;;;;;5.90;5.40;;;;;;;24.12;71.07;99406.22;10499335;28;20206;-78
2021/06/07 16:47:20;;;;;;;5.37;4.47;;;;;;;24.02;72.52;99418.78;10498579;28;20183;-77
2021/06/07 16:52:39;;;;;;;5.40;4.70;;;;;;;23.96;73.24;99419.94;10496010;28;20202;-79
2021/06/07 16:57:58;;;;;;;5.47;4.93;;;;;;;23.82;73.48;99421.47;10497741;28;20206;-77
2021/06/07 17:03:17;;;;;;;5.00;4.50;;;;;;;23.52;75.47;99419.00;10498377;28;20171;-77
2021/06/07 17:08:36;;;;;;;8.30;6.00;;;;;;;23.37;74.82;99430.16;10497251;28;20210;-80
2021/06/07 17:13:59;;;;;;;6.60;6.00;;;;;;;23.24;73.67;99439.28;10497230;28;20190;-78
2021/06/07 17:19:18;;;;;;;6.13;5.07;;;;;;;23.00;75.83;99444.06;10497044;28;20175;-76
2021/06/07 17:24:38;;;;;;;6.90;5.30;;;;;;;22.94;76.35;99440.34;10496665;28;20253;-77
2021/06/07 17:29:57;;;;;;;7.20;5.60;;;;;;;22.97;77.72;99442.19;10497281;28;20206;-77
2021/06/07 17:35:16;;;;;;;7.43;5.10;;;;;;;22.71;78.26;99449.44;10495955;28;20218;-77
2021/06/07 17:40:37;;;;;;;4.87;4.47;;;;;;;22.76;78.89;99448.81;10496221;28;20170;-77
2021/06/07 17:45:57;;;;;;;5.00;4.53;;;;;;;22.48;81.24;99458.53;10496385;28;20641;-76
2021/06/07 17:51:16;;;;;;;5.87;5.27;;;;;;;22.47;82.71;99451.34;10496921;28;20205;-76
2021/06/07 17:56:35;;;;;;;4.80;4.30;;;;;;;22.51;82.81;99458.38;10496288;28;20568;-76
2021/06/07 18:01:54;;;;;;;7.67;6.07;;;;;;;22.50;83.51;99445.59;10496108;28;20285;-77
2021/06/07 18:07:13;;;;;;;6.00;5.43;;;;;;;22.50;84.38;99445.59;10495215;28;20175;-77
2021/06/07 18:12:33;;;;;;;6.80;5.80;;;;;;;22.40;85.00;99446.06;10495402;28;20587;-79
2021/06/07 18:17:55;;;;;;;6.80;5.30;;;;;;;22.28;85.47;99446.22;10495795;28;20696;-77
2021/06/07 18:23:14;;;;;;;11.43;5.87;;;;;;;22.21;83.00;99438.13;10494803;28;20206;-79
2021/06/07 18:28:33;;;;;;;6.13;5.33;;;;;;;22.18;83.05;99451.06;10495571;28;20190;-77
2021/06/07 18:33:52;;;;;;;6.00;5.17;;;;;;;22.20;82.79;99437.38;10495276;28;20218;-78
2021/06/07 18:39:11;;;;;;;9.63;5.70;;;;;;;22.17;83.82;99432.69;10495334;28;20729;-78
2021/06/07 18:44:30;;;;;;;6.87;5.57;;;;;;;22.16;85.24;99441.56;10499438;28;20533;-78
2021/06/07 18:49:49;;;;;;;10.93;7.20;;;;;;;21.91;87.83;99445.44;10502704;28;20639;-79
2021/06/07 18:55:09;;;;;;;6.57;5.77;;;;;;;21.81;89.31;99446.69;10502549;28;20183;-76
2021/06/07 19:00:28;;;;;;;6.23;4.70;;;;;;;21.69;92.25;99452.44;10503714;28;20668;-80
2021/06/07 19:05:47;;;;;;;5.90;5.37;;;;;;;21.49;96.47;99449.28;10503332;28;20178;-80
2021/06/07 19:11:05;;;;;;;8.63;6.03;;;;;;;21.33;99.42;99462.75;10501480;28;20210;-78
2021/06/07 19:16:27;;;;;;;6.23;5.20;;;;;;;21.21;95.00;99461.63;10502940;28;20174;-77
2021/06/07 19:21:47;;;;;;;3.90;3.50;;;;;;;20.88;91.82;99465.38;10501540;28;20175;-77
2021/06/07 19:27:06;;;;;;;8.33;5.77;;;;;;;20.81;93.58;99476.84;10501663;28;20175;-76
2021/06/07 19:32:26;;;;;;;9.47;5.90;;;;;;;20.52;100.00;99481.13;10501614;28;20223;-76
2021/06/07 19:37:46;;;;;;;11.60;7.07;;;;;;;20.40;100.00;99482.75;10499753;28;20175;-77
2021/06/07 19:43:05;;;;;;;10.50;6.00;;;;;;;20.38;100.00;99495.63;10501994;28;20216;-77
2021/06/07 19:48:24;;;;;;;10.20;6.93;;;;;;;20.22;100.00;99504.22;10501563;28;20186;-76
2021/06/07 19:53:43;;;;;;;9.87;7.03;;;;;;;20.11;100.00;99501.78;10498836;28;20214;-76
2021/06/07 19:59:02;;;;;;;13.50;7.17;;;;;;;19.91;100.00;99502.50;10500305;28;20202;-76
2021/06/07 20:04:21;;;;;;;8.90;6.23;;;;;;;19.90;100.00;99512.91;10500076;28;20206;-77
2021/06/07 20:09:40;;;;;;;8.93;7.10;;;;;;;19.86;100.00;99509.44;10499350;28;20606;-78
2021/06/07 20:14:59;;;;;;;17.60;7.77;;;;;;;19.78;100.00;99521.31;10500505;28;20171;-77
2021/06/07 20:20:18;;;;;;;9.27;7.03;;;;;;;19.76;100.00;99521.75;10499551;28;20179;-77
2021/06/07 20:25:37;;;;;;;12.60;7.20;;;;;;;19.76;100.00;99526.56;10498735;28;20183;-77
2021/06/07 20:30:57;;;;;;;11.43;7.10;;;;;;;19.77;100.00;99534.47;10499727;28;20293;-77
2021/06/07 20:36:17;;;;;;;10.90;6.10;;;;;;;19.69;100.00;99535.16;10498056;28;20219;-77
2021/06/07 20:41:37;;;;;;;7.93;6.27;;;;;;;19.61;100.00;99545.78;10499543;28;20246;-78
2021/06/07 20:46:58;;;;;;;10.00;6.63;;;;;;;19.56;100.00;99549.13;10499341;28;20174;-79
2021/06/07 20:52:18;;;;;;;22.77;8.50;;;;;;;19.52;100.00;99539.31;10496070;28;20267;-78
2021/06/07 20:57:37;;;;;;;11.93;7.73;;;;;;;19.38;100.00;99542.56;10498991;28;20198;-77
2021/06/07 21:02:56;;;;;;;11.20;6.57;;;;;;;19.28;100.00;99547.25;10497628;28;20187;-78
2021/06/07 21:08:16;;;;;;;10.93;7.10;;;;;;;19.22;100.00;99547.47;10495430;28;20216;-78
2021/06/07 21:13:36;;;;;;;10.40;7.80;;;;;;;19.13;100.00;99552.91;10498210;28;20174;-79
2021/06/07 21:18:56;;;;;;;8.97;5.47;;;;;;;19.07;100.00;99544.28;10497131;28;20178;-78
2021/06/07 21:24:15;;;;;;;11.90;7.40;;;;;;;19.01;100.00;99534.16;10495683;28;20171;-79
2021/06/07 21:29:35;;;;;;;11.60;6.60;;;;;;;18.89;100.00;99541.28;10497617;28;20657;-79
2021/06/07 21:34:54;;;;;;;13.57;6.80;;;;;;;18.90;100.00;99545.59;10497282;28;20210;-81
2021/06/07 21:40:14;;;;;;;13.90;7.43;;;;;;;18.83;100.00;99536.69;10496316;28;20644;-78
2021/06/07 21:45:33;;;;;;;10.47;6.50;;;;;;;18.89;100.00;99537.69;10497549;28;20179;-78
2021/06/07 21:50:56;;;;;;;10.80;7.10;;;;;;;18.76;100.00;99534.88;10496984;28;20209;-77
2021/06/07 21:56:15;;;;;;;9.37;6.30;;;;;;;18.69;100.00;99537.88;10496148;28;20187;-80
2021/06/07 22:01:34;;;;;;;9.17;6.20;;;;;;;18.67;100.00;99536.75;10497308;28;20171;-79
2021/06/07 22:06:53;;;;;;;10.07;6.30;;;;;;;18.60;100.00;99532.16;10509232;28;20662;-77
2021/06/07 22:12:12;;;;;;;12.43;7.40;;;;;;;18.60;100.00;99539.75;10496542;28;20656;-78
2021/06/07 22:17:31;;;;;;;10.63;5.93;;;;;;;18.56;100.00;99545.44;10498389;28;20178;-80
2021/06/07 22:22:51;;;;;;;9.23;6.50;;;;;;;18.64;100.00;99543.22;10504027;28;20249;-79
2021/06/07 22:28:11;;;;;;;11.57;6.10;;;;;;;18.55;100.00;99546.66;10504964;28;20197;-79
2021/06/07 22:33:31;;;;;;;13.40;7.67;;;;;;;18.53;100.00;99554.66;10502982;28;20301;-77
2021/06/07 22:38:50;;;;;;;8.90;6.53;;;;;;;18.52;100.00;99553.09;10502030;28;20210;-76
2021/06/07 22:44:09;;;;;;;9.70;6.60;;;;;;;18.44;100.00;99548.19;10504140;28;20171;-76
2021/06/07 22:49:28;;;;;;;14.30;8.03;;;;;;;18.43;100.00;99549.41;10502620;28;20248;-77
2021/06/07 22:54:47;;;;;;;10.43;7.23;;;;;;;18.42;100.00;99547.81;10501380;28;20174;-77
2021/06/07 23:00:08;;;;;;;10.83;6.77;;;;;;;18.49;100.00;99548.41;10502353;28;20648;-76
2021/06/07 23:05:27;;;;;;;9.13;7.10;;;;;;;18.47;100.00;99547.28;10503385;28;20183;-77
2021/06/07 23:10:47;;;;;;;15.30;7.57;;;;;;;18.41;100.00;99542.69;10500513;28;20206;-76
2021/06/07 23:16:06;;;;;;;10.10;6.93;;;;;;;18.36;100.00;99544.03;10501947;28;20174;-77
2021/06/07 23:21:25;;;;;;;11.47;6.73;;;;;;;18.32;100.00;99532.19;10516183;28;20171;-79
2021/06/07 23:26:44;;;;;;;13.20;7.63;;;;;;;18.24;100.00;99541.19;10502588;28;20182;-80
2021/06/07 23:32:03;;;;;;;10.70;6.30;;;;;;;18.15;100.00;99541.00;10500897;28;20246;-78
2021/06/07 23:37:23;;;;;;;9.93;6.77;;;;;;;18.17;100.00;99535.78;10499764;28;20187;-78
2021/06/07 23:42:42;;;;;;;11.70;7.50;;;;;;;18.10;100.00;99531.19;10502080;28;20175;-79
2021/06/07 23:48:00;;;;;;;16.20;8.43;;;;;;;18.05;100.00;99531.69;10500751;28;20179;-80
2021/06/07 23:53:20;;;;;;;17.90;8.30;;;;;;;17.92;100.00;99530.09;10500370;28;20571;-79
2021/06/07 23:58:38;;;;;;;9.30;6.70;;;;;;;17.89;100.00;99528.16;10501317;28;20285;-77
